New Marshfield, OH (45766)

6:20 PM EDT on September 01, 2015 (GMT -0400)
Whitlind Woods | | Change Station
CLOSE
Current Station
Personal Weather Station
Location: Athens, OH
Elevation: 713 ft
Nearby Weather Stations

Elev 713 ft 39.31 °N, 82.16 °W | Updated 28 seconds ago

Partly Cloudy
Partly Cloudy
82.6 °F
Feels Like 90 °F
N
0.0
Wind Variable Wind from NNW
Gusts 0.0 mph

Today
High -- | Low -- °F
--% Chance of Precip.
Yesterday
High -- | Low -- °F
Precip. -- in
6:57 AM 8:00 PM
Waning Gibbous, 86% visible
Pressure 30.08 in
Visibility 10.0 miles
Clouds Scattered Clouds 12000 ft
Heat Index 90 °F
Dew Point 76 °F
Humidity 80%
Rainfall 0.11 in
Snow Depth Not available.
UV 2 out of 12
Pollen 10.60 out of 12
Air Quality Not available.
Flu Activity Not available.
METAR KUNI 012155Z AUTO 00000KT 10SM SCT120 29/20 A3008 RMK AO2 T02900197
Pressure 30.08 in
Visibility 10.0 miles
Clouds Scattered Clouds 12000 ft
Heat Index 90 °F
Dew Point 76 °F
Humidity 80%
Rainfall 0.11 in
Snow Depth Not available.
UV 2 out of 12
Pollen 10.60 out of 12
Air Quality Not available.
Flu Activity Not available.
METAR KUNI 012155Z AUTO 00000KT 10SM SCT120 29/20 A3008 RMK AO2 T02900197

10-Day Weather Forecast

×

Almanac

Astronomy

Sep. 01, 2015 Rise Set
Actual Time
Civil Twilight
Nautical Twilight
Astronomical Twilight
Moon
Length of Visible Light
Length of Day
Tomorrow will be .
, % of the Moon is Illuminated

Today's Extremes

State Highs State Lows

Community

WunderPhotos

Upload Photos

1,851,632 photos uploaded!

WunderBlogs® & News

Nearby

Air Quality

  Air Quality AQ Index Pollutant
Not available.

Snow Depth

Station Depth Elevation

Earthquake Activity

City Distance Mag. Time & Date
Minimum magnitude displayed is 2.5.

Coastal Water Temperatures

Place Temperature

Stations

Nearby Weather Stations

Station Location Temp. Windchill Dew Point Humidity Wind Precip. Elev Updated Type